Date,TemperatureHighF,TemperatureAvgF,TemperatureLowF,DewpointHighF,DewpointAvgF,DewpointLowF,HumidityHigh,HumidityAvg,HumidityLow,PressureMaxIn,PressureMinIn,WindSpeedMaxMPH,WindSpeedAvgMPH,GustSpeedMaxMPH,PrecipitationSumIn
2013-1-1,31.3,26.6,20.8,32.0,32.0,32.0,73,53,40,30.09,30.00,15,7,15,0.00
2013-1-2,26.0,18.0,10.9,32.0,32.0,32.0,46,41,34,30.21,30.09,12,4,12,0.00
2013-1-3,28.9,19.5,7.0,32.0,32.0,32.0,47,41,33,30.18,30.09,20,8,20,0.00
2013-1-4,32.2,26.8,23.9,32.0,32.0,32.0,45,36,31,30.24,30.12,22,14,22,0.00
2013-1-5,36.3,29.1,23.0,32.0,32.0,32.0,43,37,31,30.32,30.12,15,8,15,0.00
2013-1-6,36.2,33.4,29.8,32.0,32.0,32.0,55,44,36,30.21,29.97,18,10,18,0.00
2013-1-7,36.1,30.9,27.7,32.0,32.0,32.0,54,44,31,30.41,30.21,17,8,17,0.00
2013-1-8,41.7,31.8,24.5,32.0,32.0,32.0,50,40,29,30.29,30.21,15,5,15,0.00
2013-1-9,46.7,38.2,31.8,32.0,32.0,32.0,54,38,29,30.44,30.18,23,10,23,0.00
2013-1-10,39.2,33.2,23.9,32.0,32.0,32.0,54,40,30,30.56,30.24,11,4,11,0.00
2013-1-11,54.4,46.6,38.5,52.0,39.7,32.0,93,64,29,30.24,29.85,17,7,17,0.00
2013-1-12,58.7,54.0,47.7,55.0,47.6,43.0,96,79,56,30.03,29.88,16,7,16,0.00
2013-1-13,62.8,56.2,38.3,55.0,44.8,33.0,90,67,50,30.03,29.79,20,10,20,0.00
2013-1-14,38.1,30.5,26.2,32.0,32.0,32.0,82,51,34,30.41,30.03,18,7,18,0.00
2013-1-15,32.2,28.4,25.0,32.0,32.0,32.0,46,37,31,30.38,30.09,11,4,11,0.00
2013-1-16,35.1,31.4,28.6,32.0,32.0,32.0,42,36,30,30.09,29.88,18,6,18,0.00
2013-1-17,35.6,32.8,26.5,32.0,32.0,32.0,43,35,30,30.21,30.00,20,9,20,0.00
2013-1-18,34.1,27.2,6.9,32.0,32.0,32.0,34,32,30,30.44,30.12,26,11,26,0.00
2013-1-19,49.8,42.0,32.8,32.0,32.0,32.0,31,28,26,30.12,29.73,26,16,26,0.00
2013-1-20,45.3,29.5,20.5,32.0,32.0,32.0,33,31,28,30.15,29.70,36,17,36,0.00
2013-1-21,22.4,17.5,8.6,32.0,32.0,32.0,44,35,33,30.12,29.91,24,12,24,0.00
2013-1-22,11.8,7.9,5.4,32.0,32.0,32.0,36,36,36,30.24,30.06,20,11,20,0.00
2013-1-23,16.7,11.1,5.0,32.0,32.0,32.0,42,36,34,30.27,30.06,13,6,13,0.00
2013-1-24,22.9,15.0,8.4,32.0,32.0,32.0,48,38,32,30.53,30.06,13,5,13,0.00
2013-1-25,18.3,15.1,11.1,32.0,32.0,32.0,46,39,34,30.47,30.03,12,2,12,0.00
2013-1-26,27.5,22.0,17.6,32.0,32.0,32.0,53,41,33,30.41,30.06,15,5,15,0.00
2013-1-27,30.4,22.9,8.3,32.0,32.0,32.0,45,35,31,30.47,30.24,11,3,11,0.00
2013-1-28,45.8,38.7,28.6,45.0,37.2,32.0,95,80,37,30.24,29.94,15,8,15,0.00
2013-1-29,59.4,52.3,45.7,57.0,49.8,41.0,97,91,51,30.06,29.70,19,8,19,0.00
2013-1-30,62.8,55.8,36.3,50.0,39.4,32.0,81,55,35,29.70,29.23,33,15,33,0.00
2013-1-31,35.7,24.9,17.1,32.0,32.0,32.0,69,42,33,29.88,29.35,31,20,31,0.00
2013-2-1,17.3,14.5,11.5,32.0,32.0,32.0,44,38,35,30.27,29.85,24,15,24,0.00
2013-2-2,23.8,17.5,11.6,32.0,32.0,32.0,49,42,36,30.27,29.94,16,8,16,0.00
2013-2-3,24.1,19.7,15.5,32.0,32.0,32.0,51,43,33,30.00,29.85,20,9,20,0.00
2013-2-4,25.5,20.7,15.6,32.0,32.0,32.0,47,44,42,30.03,29.85,14,6,14,0.00
2013-2-5,29.4,25.2,22.1,32.0,32.0,32.0,53,44,33,29.94,29.85,12,4,12,0.00
2013-2-6,32.5,26.1,20.0,32.0,32.0,32.0,54,38,30,30.29,29.94,14,5,14,0.00
2013-2-7,42.7,31.4,19.9,32.0,32.0,32.0,39,33,29,30.27,29.88,10,4,10,0.00
2013-2-8,38.5,31.1,24.4,32.0,32.0,32.0,67,50,39,30.21,29.76,22,13,22,0.00
2013-2-9,33.2,26.5,21.5,32.0,32.0,32.0,46,38,31,30.38,30.21,14,5,14,0.00
2013-2-10,46.9,33.7,19.9,32.0,32.0,32.0,43,34,27,30.29,29.85,15,5,15,0.00
2013-2-11,49.9,41.3,32.7,39.0,32.9,32.0,76,42,29,29.94,29.70,33,18,33,0.00
2013-2-12,37.0,31.6,25.2,32.0,32.0,32.0,42,34,30,30.06,29.94,21,9,21,0.00
2013-2-13,34.3,28.3,24.0,32.0,32.0,32.0,51,42,33,29.94,29.73,10,2,10,0.00
2013-2-14,37.0,31.8,23.2,32.0,32.0,32.0,56,50,38,29.91,29.82,22,10,22,0.00
2013-2-15,36.3,31.2,25.3,32.0,32.0,32.0,42,37,31,30.09,29.91,24,8,24,0.00
2013-2-16,29.8,25.3,19.8,32.0,32.0,32.0,48,37,31,30.09,29.94,12,6,12,0.00
2013-2-17,24.2,17.7,10.9,32.0,32.0,32.0,49,40,32,30.21,29.97,18,8,18,0.00
2013-2-18,44.6,26.7,7.8,32.0,32.0,32.0,42,32,28,30.24,29.76,15,6,15,0.00
2013-2-19,47.3,31.3,16.9,32.0,32.0,32.0,62,45,28,29.97,29.62,28,18,28,0.00
2013-2-20,22.2,18.7,15.4,32.0,32.0,32.0,45,39,33,30.21,29.97,23,13,23,0.00
2013-2-21,25.1,20.0,17.1,32.0,32.0,32.0,51,40,33,30.32,30.18,13,7,13,0.00
2013-2-22,37.9,29.1,18.5,32.0,32.0,32.0,70,51,36,30.27,29.94,14,8,14,0.00
2013-2-23,36.6,33.7,29.7,32.0,32.0,32.0,50,40,32,29.97,29.88,16,8,16,0.00
2013-2-24,32.4,29.7,26.5,32.0,32.0,32.0,41,36,32,30.15,29.88,16,8,16,0.00
2013-2-25,41.9,32.4,20.8,32.0,32.0,32.0,47,36,29,30.21,30.06,10,3,10,0.00
2013-2-26,37.1,33.6,29.6,32.0,32.0,32.0,72,48,31,30.09,29.56,20,11,20,0.00
2013-2-27,40.5,36.9,32.5,34.0,32.1,32.0,80,67,51,29.67,29.53,18,9,18,0.00
2013-2-28,33.8,32.2,29.8,32.0,32.0,32.0,69,59,52,29.88,29.62,16,11,16,0.00
2013-3-1,30.6,27.5,25.0,32.0,32.0,32.0,59,47,41,30.00,29.88,16,9,16,0.00
2013-3-2,29.3,25.7,23.4,32.0,32.0,32.0,49,44,35,30.00,29.97,13,7,13,0.00
2013-3-3,28.4,24.1,21.4,32.0,32.0,32.0,49,43,35,30.03,29.94,14,8,14,0.00
2013-3-4,35.1,26.8,18.1,32.0,32.0,32.0,47,37,30,30.12,30.03,14,4,14,0.00
2013-3-5,40.5,30.4,17.9,32.0,32.0,32.0,49,35,28,30.09,29.67,17,6,17,0.00
2013-3-6,42.4,36.6,31.0,32.0,32.0,32.0,42,34,29,30.15,29.67,18,7,18,0.00
2013-3-7,38.5,33.3,28.8,32.0,32.0,32.0,54,45,36,30.35,30.15,11,6,11,0.00
2013-3-8,37.0,30.6,25.5,32.0,32.0,32.0,52,42,34,30.44,30.32,12,4,12,0.00
2013-3-9,52.0,38.2,20.7,32.0,32.0,32.0,51,35,26,30.41,30.12,9,4,9,0.00
2013-3-10,67.3,56.4,46.8,32.0,32.0,32.0,28,25,23,30.12,29.91,17,8,17,0.00
2013-3-11,60.6,52.5,41.7,37.0,32.5,32.0,66,38,24,29.91,29.62,22,8,22,0.00
2013-3-12,41.6,36.0,33.4,32.0,32.0,32.0,52,41,34,29.97,29.79,19,12,19,0.00
2013-3-13,33.4,29.9,26.6,32.0,32.0,32.0,48,41,32,30.15,29.91,23,12,23,0.00
2013-3-14,37.9,30.0,22.1,32.0,32.0,32.0,43,34,29,30.21,30.09,18,10,18,0.00
2013-3-15,44.4,35.5,27.9,32.0,32.0,32.0,59,38,30,30.12,29.85,17,8,17,0.00
2013-3-16,36.5,32.6,28.8,32.0,32.0,32.0,80,64,45,30.00,29.67,13,4,13,0.00
2013-3-17,34.5,30.2,26.2,32.0,32.0,32.0,51,40,31,30.21,30.00,12,3,12,0.00
2013-3-18,43.9,33.9,26.2,43.0,33.8,32.0,94,62,34,30.18,29.62,23,9,23,0.00
2013-3-19,40.6,31.0,26.6,37.0,32.1,32.0,88,41,31,29.94,29.70,28,17,28,0.00
2013-3-20,32.3,27.5,21.4,32.0,32.0,32.0,44,35,31,29.97,29.88,20,10,20,0.00
2013-3-21,28.6,22.4,14.9,32.0,32.0,32.0,53,40,33,29.91,29.85,18,10,18,0.00
2013-3-22,34.3,27.8,23.7,32.0,32.0,32.0,53,41,31,30.00,29.91,16,9,16,0.00
2013-3-23,42.4,31.4,20.0,32.0,32.0,32.0,49,37,28,30.06,30.00,12,3,12,0.00
2013-3-24,34.9,30.0,23.9,32.0,32.0,32.0,47,37,30,30.03,29.53,19,8,19,0.00
2013-3-25,35.5,33.0,31.1,32.0,32.0,32.0,73,61,31,29.82,29.47,13,7,13,0.00
2013-3-26,40.2,33.9,31.5,32.0,32.0,32.0,68,58,34,30.09,29.82,15,7,15,0.00
2013-3-27,43.4,36.5,31.8,32.0,32.0,32.0,67,45,29,30.18,30.09,19,12,19,0.00
2013-3-28,45.3,38.1,33.6,32.0,32.0,32.0,44,34,28,30.27,30.15,15,7,15,0.00
2013-3-29,51.5,41.6,31.8,32.0,32.0,32.0,40,32,26,30.27,30.21,17,6,17,0.00
2013-3-30,56.7,42.4,25.5,32.0,32.0,32.0,42,31,25,30.24,30.00,16,4,16,0.00
2013-3-31,51.0,45.7,39.2,32.0,32.0,32.0,45,33,27,30.00,29.70,17,7,17,0.00
2013-4-1,46.0,38.1,32.1,32.0,32.0,32.0,50,33,28,30.06,29.70,20,12,20,0.00
2013-4-2,41.0,33.1,24.4,32.0,32.0,32.0,35,31,28,30.18,30.06,22,10,22,0.00
2013-4-3,38.8,32.1,24.3,32.0,32.0,32.0,33,30,29,30.41,30.18,19,7,19,0.00
2013-4-4,55.0,37.5,20.5,32.0,32.0,32.0,38,30,25,30.38,29.97,12,3,12,0.00
2013-4-5,49.3,39.1,29.7,32.0,32.0,32.0,32,29,27,30.21,29.94,16,6,16,0.00
2013-4-6,56.4,41.7,23.8,32.0,32.0,32.0,41,29,25,30.27,29.97,12,5,12,0.00
2013-4-7,72.5,59.3,46.4,32.0,32.0,32.0,39,25,21,30.03,29.82,28,13,28,0.00
2013-4-8,70.9,56.3,39.4,32.0,32.0,32.0,43,30,22,30.06,29.85,30,9,30,0.00
2013-4-9,78.6,65.3,47.1,36.0,32.5,32.0,47,27,21,30.12,29.91,24,9,24,0.00
2013-4-10,74.8,61.8,48.0,54.0,38.8,32.0,76,44,23,29.97,29.82,22,6,22,0.00
2013-4-11,51.6,48.3,44.2,52.0,44.3,41.0,97,85,72,29.94,29.62,16,7,16,0.00
2013-4-12,57.4,46.5,39.2,55.0,39.9,32.0,91,70,41,29.88,29.50,21,10,21,0.00
2013-4-13,43.7,39.9,34.1,32.0,32.0,32.0,56,43,31,30.03,29.88,28,12,28,0.00
2013-4-14,56.8,44.6,32.5,32.0,32.0,32.0,45,33,25,30.15,30.00,13,6,13,0.00
2013-4-15,70.3,58.1,46.5,32.0,32.0,32.0,34,27,23,30.06,28.82,19,6,19,0.00
2013-4-16,70.8,58.8,49.5,43.0,36.2,32.0,69,43,32,30.21,30.00,19,8,19,0.00
2013-4-17,65.7,56.1,47.0,45.0,34.9,32.0,86,43,23,30.29,30.09,13,5,13,0.00
2013-4-18,83.6,71.2,59.4,45.0,37.7,32.0,56,32,19,30.09,29.73,25,11,25,0.00
2013-4-19,70.9,54.1,39.4,50.0,34.1,32.0,66,36,22,29.88,29.47,28,16,28,0.00
2013-4-20,44.6,38.3,33.1,32.0,32.0,32.0,50,34,28,30.38,29.88,25,12,25,0.00
2013-4-21,49.3,40.1,28.4,32.0,32.0,32.0,44,32,26,30.59,30.41,13,5,13,0.00
2013-4-22,64.7,51.0,35.6,32.0,32.0,32.0,32,27,23,30.44,30.24,12,5,12,0.00
2013-4-23,72.8,59.3,43.3,32.0,32.0,32.0,29,25,21,30.24,29.94,18,7,18,0.00
2013-4-24,62.4,48.7,36.1,45.0,34.9,32.0,68,54,24,30.18,29.76,24,9,24,0.00
2013-4-25,54.2,42.2,32.9,32.0,32.0,32.0,65,45,26,30.35,30.18,22,8,22,0.00
2013-4-26,59.5,46.5,31.3,32.0,32.0,32.0,55,36,25,30.47,30.35,13,3,13,0.00
2013-4-27,70.8,55.3,35.8,32.0,32.0,32.0,45,29,22,30.38,30.12,11,3,11,0.00
2013-4-28,56.3,53.8,48.0,54.0,41.2,32.0,91,58,26,30.12,29.91,10,4,10,0.00
2013-4-29,64.7,58.4,53.7,59.0,46.7,34.0,91,68,35,30.03,29.91,10,4,10,0.00
2013-4-30,73.8,62.3,47.1,55.0,36.5,32.0,80,42,22,30.15,30.03,12,4,12,0.00
2013-5-1,77.9,67.0,54.8,37.0,33.4,32.0,47,29,21,30.29,30.15,11,5,11,0.00
2013-5-2,77.3,67.4,56.1,34.0,32.2,32.0,25,23,21,30.32,30.18,11,6,11,0.00
2013-5-3,76.1,67.6,56.5,34.0,32.0,32.0,25,23,21,30.21,30.12,14,7,14,0.00
2013-5-4,71.2,62.8,53.6,32.0,32.0,32.0,26,24,22,30.18,30.09,14,7,14,0.00
2013-5-5,72.8,63.3,52.6,32.0,32.0,32.0,28,24,21,30.12,30.00,15,7,15,0.00
2013-5-6,74.1,62.9,51.1,32.0,32.0,32.0,28,24,21,30.09,30.00,12,6,12,0.00
2013-5-7,71.2,63.8,57.2,37.0,33.9,32.0,47,33,22,30.06,29.97,11,4,11,0.00
2013-5-8,70.1,63.4,59.5,43.0,35.3,32.0,51,35,23,30.03,29.97,8,2,8,0.00
2013-5-9,78.4,65.7,55.6,50.0,38.5,32.0,71,41,20,30.03,29.94,12,3,12,0.00
2013-5-10,73.0,64.0,59.9,55.0,44.1,32.0,85,51,24,30.00,29.79,20,8,20,0.00
2013-5-11,60.8,49.7,45.9,55.0,40.6,32.0,85,72,46,29.91,29.79,23,7,23,0.00
2013-5-12,51.2,43.8,37.1,36.0,32.1,32.0,64,36,26,30.09,29.91,21,12,21,0.00
2013-5-13,53.4,43.2,35.6,32.0,32.0,32.0,40,31,26,30.18,30.06,18,6,18,0.00
2013-5-14,66.0,51.1,35.1,32.0,32.0,32.0,44,30,23,30.18,29.85,17,5,17,0.00
2013-5-15,83.7,67.6,55.6,41.0,35.0,32.0,45,28,19,29.88,29.73,27,8,27,0.00
2013-5-16,80.5,67.5,53.9,39.0,33.2,32.0,47,27,20,30.00,29.82,13,4,13,0.00
2013-5-17,80.6,65.2,49.7,37.0,32.9,32.0,46,27,20,30.15,30.00,8,3,8,0.00
2013-5-18,81.5,68.7,55.8,37.0,33.1,32.0,32,24,20,30.15,30.03,8,3,8,0.00
2013-5-19,82.2,71.3,62.2,52.0,41.5,32.0,61,36,21,30.12,29.97,10,4,10,0.00
2013-5-20,83.9,74.2,63.9,59.0,48.1,43.0,70,42,25,30.03,29.91,15,6,15,0.00
2013-5-21,85.3,76.3,69.4,62.0,48.5,37.0,75,42,20,29.94,29.82,17,9,17,0.00
2013-5-22,85.0,78.0,67.1,50.0,37.9,34.0,54,24,19,29.88,29.76,25,12,25,0.00
2013-5-23,71.9,61.4,43.0,59.0,45.8,32.0,78,58,27,30.03,29.79,20,9,20,0.00
2013-5-24,45.1,42.6,36.7,32.0,32.0,32.0,64,39,29,30.32,30.03,15,8,15,0.00
2013-5-25,60.5,46.8,33.1,32.0,32.0,32.0,53,35,24,30.35,30.27,16,5,16,0.00
2013-5-26,65.1,50.7,34.7,32.0,32.0,32.0,50,32,23,30.32,30.24,12,3,12,0.00
2013-5-27,57.2,51.0,39.0,37.0,32.3,32.0,54,37,25,30.29,30.09,9,3,9,0.00
2013-5-28,78.7,65.5,52.3,63.0,47.4,37.0,91,58,24,30.09,29.94,19,7,19,0.00
2013-5-29,85.6,76.5,67.3,63.0,38.4,34.0,85,26,19,30.09,28.76,18,10,18,0.00
2013-5-30,87.2,76.3,63.7,55.0,42.4,36.0,62,32,18,30.18,30.09,15,6,15,0.00
2013-5-31,86.7,73.7,66.2,63.0,48.0,37.0,86,44,19,30.12,29.97,20,7,20,0.00
2013-6-1,80.7,73.2,65.4,66.0,53.9,45.0,91,56,30,30.03,29.79,20,10,20,0.00
2013-6-2,75.0,68.7,63.8,64.0,48.0,34.0,92,53,23,29.94,29.79,22,10,22,0.00
2013-6-3,64.6,58.0,48.4,43.0,33.3,32.0,50,34,23,30.12,29.94,11,4,11,0.00
2013-6-4,70.3,57.1,43.7,34.0,32.0,32.0,52,33,22,30.18,30.12,11,3,11,0.00
2013-6-5,76.3,62.6,48.4,37.0,32.2,32.0,55,31,21,30.18,29.97,8,2,8,0.00
2013-6-6,63.1,59.5,54.9,61.0,51.4,32.0,97,78,26,29.97,29.82,10,3,10,0.00
2013-6-7,58.9,56.5,54.7,59.0,55.5,54.0,97,94,86,29.91,29.85,10,4,10,0.00
2013-6-8,69.6,60.8,56.1,57.0,44.1,32.0,91,60,24,30.12,29.91,10,3,10,0.00
2013-6-9,75.9,66.7,56.2,46.0,38.8,32.0,63,38,22,30.18,30.00,10,3,10,0.00
2013-6-10,70.3,67.5,65.3,66.0,57.2,39.0,90,71,32,30.00,29.79,13,4,13,0.00
2013-6-11,76.3,68.6,63.0,64.0,53.2,38.0,94,63,26,29.94,29.82,16,6,16,0.00
2013-6-12,76.8,70.9,63.3,61.0,53.5,43.0,81,56,31,29.94,29.73,11,4,11,0.00
2013-6-13,71.8,65.2,60.3,63.0,50.6,32.0,91,64,25,29.88,29.56,27,10,27,0.04
2013-6-14,70.3,62.1,55.6,51.0,40.7,32.0,70,47,27,30.12,29.88,11,5,11,0.04
2013-6-15,78.2,63.6,49.2,52.0,36.9,32.0,65,40,21,30.15,30.03,15,3,15,0.04
2013-6-16,78.2,68.7,62.6,64.0,52.6,43.0,91,59,30,30.03,29.88,15,8,15,0.04
2013-6-17,77.9,67.3,61.3,68.0,52.6,35.0,94,63,22,30.00,29.94,15,4,15,0.04
2013-6-18,75.0,66.3,58.5,55.0,43.1,32.0,70,45,25,30.06,29.91,12,3,12,0.04
2013-6-19,73.0,62.5,50.2,42.0,33.2,32.0,56,34,22,30.21,30.03,11,3,11,0.04
2013-6-20,78.6,65.0,50.7,43.0,34.4,32.0,57,34,21,30.27,30.18,10,2,10,0.04
2013-6-21,84.5,69.9,55.8,51.0,38.2,34.0,59,34,19,30.27,30.18,10,3,10,0.04
2013-6-22,88.2,76.0,61.9,50.0,42.9,39.0,60,33,19,30.18,30.09,15,6,15,0.04
2013-6-23,89.5,79.1,67.8,57.0,45.0,39.0,62,32,18,30.15,30.06,16,7,16,0.04
2013-6-24,88.1,77.6,67.8,46.0,41.9,39.0,44,29,19,30.15,30.03,17,8,17,0.04
2013-6-25,89.9,75.2,65.1,66.0,53.3,41.0,88,51,19,30.06,29.91,25,8,25,0.04
2013-6-26,79.8,71.9,65.8,72.0,59.7,46.0,97,71,32,30.00,29.82,15,5,15,0.04
2013-6-27,75.5,70.1,67.3,70.0,61.1,48.0,93,75,40,29.85,29.70,9,3,9,0.04
2013-6-28,78.6,68.6,62.9,66.0,53.4,37.0,91,62,23,29.70,29.56,15,6,15,0.04
2013-6-29,78.1,67.1,61.7,61.0,53.2,39.0,83,64,25,29.73,29.59,10,4,10,0.04
2013-6-30,75.6,67.8,61.9,64.0,55.3,46.0,91,67,41,29.94,29.73,12,2,12,0.04
2013-7-1,70.5,66.8,64.2,64.0,59.2,50.0,89,77,56,30.03,29.88,9,2,9,0.00
2013-7-2,79.9,69.6,62.4,66.0,55.9,43.0,92,67,27,30.09,30.00,9,2,9,0.00
2013-7-3,83.9,72.7,64.9,68.0,55.4,40.0,88,60,22,30.18,30.09,12,4,12,0.00
2013-7-4,75.9,71.9,68.8,70.0,59.7,50.0,91,67,42,30.21,30.15,12,5,12,0.00
2013-7-5,76.2,70.7,68.2,68.0,62.9,55.0,93,77,49,30.18,30.12,12,4,12,0.00
2013-7-6,81.8,72.6,68.2,68.0,61.6,46.0,91,72,31,30.18,30.06,22,4,22,0.00
2013-7-7,78.3,71.7,67.1,68.0,56.1,43.0,89,62,30,30.12,30.03,15,7,15,0.00
2013-7-8,82.6,70.9,64.5,64.0,52.7,44.0,87,55,26,30.15,30.06,15,6,15,0.00
2013-7-9,84.9,73.8,68.0,76.0,64.9,50.0,97,78,30,30.12,29.97,20,7,20,0.00
2013-7-10,83.6,71.8,66.9,79.0,67.8,52.0,97,89,39,30.00,28.67,15,6,15,0.04
2013-7-11,74.0,68.0,62.4,64.0,49.1,32.0,92,58,22,30.04,29.92,12,4,12,0.04
2013-7-12,75.2,67.0,58.5,61.0,45.1,34.0,80,49,22,30.13,30.04,9,2,9,0.04
2013-7-13,80.3,72.0,61.5,57.0,47.3,38.0,72,44,22,30.22,30.10,7,3,7,0.04
2013-7-14,83.3,75.9,66.7,66.0,53.6,46.0,82,50,29,30.27,30.22,10,2,10,0.04
2013-7-15,90.3,78.3,69.3,69.0,56.1,43.0,82,51,20,30.33,30.24,10,2,10,0.04
2013-7-16,85.2,77.6,71.6,75.0,65.1,50.0,85,67,31,30.33,30.24,11,3,11,0.04
2013-7-17,89.1,79.9,71.6,75.0,58.8,43.0,91,56,21,30.30,30.19,10,3,10,0.04
2013-7-18,91.7,81.5,72.9,73.0,58.1,43.0,84,51,19,30.19,30.04,13,5,13,0.04
2013-7-19,91.0,81.3,75.6,66.0,55.2,43.0,69,44,19,30.04,29.86,16,9,16,0.04
2013-7-20,77.2,72.4,67.1,71.0,61.1,52.0,95,69,45,29.95,29.83,12,6,12,0.04
2013-7-21,79.4,73.3,68.2,70.0,56.0,43.0,89,59,30,29.98,29.92,9,2,9,0.04
2013-7-22,73.6,68.5,64.8,66.0,58.8,50.0,80,71,52,29.98,29.80,6,1,6,0.04
2013-7-23,77.3,69.6,64.0,66.0,60.0,50.0,91,73,43,29.80,29.68,11,5,11,0.04
2013-7-24,68.9,64.0,56.8,50.0,38.9,32.0,66,41,24,30.04,29.80,10,4,10,0.04
2013-7-25,73.6,62.9,52.3,48.0,36.6,32.0,73,41,22,30.10,30.04,8,2,8,0.04
2013-7-26,79.5,66.6,54.0,54.0,38.6,32.0,71,40,21,30.10,29.98,12,4,12,0.04
2013-7-27,68.2,65.7,63.1,61.0,54.1,43.0,80,67,47,29.98,29.83,12,5,12,0.04
2013-7-28,68.6,62.9,56.7,55.0,39.8,32.0,75,45,23,30.04,29.86,18,8,18,0.04
2013-7-29,68.0,62.2,54.0,50.0,39.8,32.0,72,45,24,30.19,30.04,15,4,15,0.04
2013-7-30,76.5,65.4,54.5,55.0,42.4,32.0,77,48,21,30.24,30.16,10,3,10,0.04
2013-7-31,73.9,67.0,61.0,59.0,48.8,41.0,77,54,32,30.16,29.95,12,3,12,0.04
2013-8-1,79.4,69.1,61.4,64.0,49.1,34.0,90,53,21,29.95,29.86,16,7,16,0.00
2013-8-2,71.4,65.4,58.8,57.0,44.0,32.0,73,49,24,30.01,29.92,20,6,20,0.00
2013-8-3,76.1,69.1,60.5,64.0,47.6,32.0,91,53,21,30.01,29.92,13,6,13,0.00
2013-8-4,70.9,63.8,58.6,57.0,41.6,32.0,80,48,23,30.13,30.01,14,4,14,0.00
2013-8-5,71.2,62.9,56.8,51.0,39.9,32.0,70,45,23,30.13,30.01,8,2,8,0.00
2013-8-6,77.0,67.4,58.1,52.0,41.0,34.0,69,42,22,30.04,29.95,10,2,10,0.00
2013-8-7,76.4,68.8,62.1,68.0,54.0,43.0,85,60,40,29.98,29.89,16,4,16,0.00
2013-8-8,79.7,73.4,69.9,73.0,66.3,57.0,94,79,48,29.98,29.92,13,4,13,0.00
2013-8-9,77.0,69.5,61.7,64.0,50.8,32.0,85,57,21,30.04,29.92,10,4,10,0.00
2013-8-10,78.2,67.8,59.4,59.0,42.4,32.0,75,43,23,30.13,30.04,10,2,10,0.00
2013-8-11,79.5,69.2,61.3,52.0,39.6,34.0,63,36,21,30.13,30.04,10,2,10,0.00
2013-8-12,78.4,69.5,61.0,57.0,47.7,37.0,72,48,23,30.07,29.86,12,3,12,0.00
2013-8-13,72.0,66.6,55.1,59.0,44.8,32.0,74,47,24,30.01,29.83,14,6,14,0.00
2013-8-14,68.6,59.2,53.1,43.0,35.6,32.0,54,41,23,30.16,30.01,12,4,12,0.00
2013-8-15,72.4,59.8,49.1,45.0,34.2,32.0,61,39,22,30.19,30.10,10,3,10,0.00
2013-8-16,73.3,63.1,54.3,50.0,37.3,32.0,66,41,22,30.19,30.13,7,1,7,0.00
2013-8-17,75.9,64.9,53.8,52.0,37.6,32.0,66,40,21,30.24,30.19,8,2,8,0.00
2013-8-18,72.7,64.8,55.8,51.0,43.3,39.0,66,46,34,30.22,30.13,7,2,7,0.00
2013-8-19,79.9,68.2,61.0,63.0,48.4,34.0,89,55,20,30.16,30.10,9,3,9,0.00
2013-8-20,84.0,69.8,58.8,57.0,42.9,34.0,75,42,19,30.19,30.10,10,3,10,0.00
2013-8-21,85.4,72.1,59.8,59.0,44.4,36.0,72,41,19,30.19,30.07,12,4,12,0.00
2013-8-22,82.0,72.5,66.6,68.0,54.8,46.0,82,55,29,30.10,29.98,12,5,12,0.00
2013-8-23,80.4,71.2,59.6,66.0,46.6,32.0,84,48,20,30.19,30.01,12,2,12,0.00
2013-8-24,79.9,66.0,54.3,52.0,37.5,32.0,64,38,20,30.30,30.19,7,2,7,0.00
2013-8-25,83.5,69.1,55.0,52.0,38.7,34.0,65,36,19,30.33,30.22,12,5,12,0.00
2013-8-26,84.5,74.6,63.9,48.0,40.9,36.0,48,31,20,30.24,30.01,15,8,15,0.00
2013-8-27,78.3,73.8,70.0,73.0,60.3,46.0,93,65,36,30.07,29.92,13,6,13,0.00
2013-8-28,76.7,73.4,69.8,72.0,66.4,61.0,92,79,59,29.98,29.86,12,5,12,0.00
2013-8-29,82.4,73.3,68.7,70.0,58.5,37.0,93,66,20,30.07,29.98,6,2,6,0.00
2013-8-30,85.7,74.1,63.5,66.0,51.9,39.0,84,52,20,30.04,29.83,14,5,14,0.00
2013-8-31,84.5,75.0,69.8,66.0,56.0,45.0,79,54,25,29.86,29.74,16,5,16,0.00
2013-9-1,78.8,73.2,68.6,72.0,61.4,49.0,88,69,35,29.86,29.77,10,2,10,0.00
2013-9-2,77.2,70.5,64.9,70.0,60.7,50.0,93,72,43,29.86,29.77,12,4,12,0.00
2013-9-3,65.6,61.9,56.7,56.0,47.1,39.0,77,59,39,30.04,29.86,12,4,12,0.00
2013-9-4,77.7,64.4,54.1,52.0,42.7,32.0,78,51,21,30.13,30.04,15,5,15,0.00
2013-9-5,70.3,63.9,53.6,52.0,39.7,32.0,65,43,22,30.24,30.07,13,4,13,0.00
2013-9-6,72.0,58.9,47.1,43.0,33.3,32.0,59,39,22,30.27,30.13,7,1,7,0.00
2013-9-7,79.0,65.1,50.5,51.0,38.1,32.0,61,39,21,30.13,29.95,10,4,10,0.00
2013-9-8,73.8,67.3,56.7,63.0,48.7,37.0,81,54,28,30.07,29.92,7,2,7,0.00
2013-9-9,77.0,65.4,52.4,63.0,49.7,36.0,71,57,43,30.07,29.98,9,2,9,0.00
2013-9-10,93.0,80.9,72.0,61.0,54.3,43.0,66,44,18,30.10,30.01,15,9,15,0.00
2013-9-11,90.3,80.5,74.3,64.0,54.4,41.0,69,44,19,30.13,29.98,13,7,13,0.00
2013-9-12,75.1,68.7,60.2,68.0,59.6,50.0,89,73,51,30.01,29.83,12,4,12,0.00
2013-9-13,60.3,57.2,52.9,55.0,45.3,32.0,85,66,36,30.07,29.89,14,6,14,0.00
2013-9-14,65.6,55.4,48.4,40.0,34.2,32.0,64,44,23,30.16,30.07,10,3,10,0.00
2013-9-15,65.1,56.4,46.4,43.0,34.3,32.0,65,43,25,30.16,30.07,10,3,10,0.00
2013-9-16,65.0,58.7,50.7,55.0,42.6,32.0,85,57,29,30.30,30.10,14,3,14,0.00
2013-9-17,66.6,54.7,43.3,39.0,32.9,32.0,64,41,23,30.39,30.24,7,4,7,0.00
2013-9-18,70.7,59.3,47.7,45.0,36.1,32.0,59,41,25,30.24,30.07,10,3,10,0.00
2013-9-19,75.0,67.1,61.2,61.0,53.7,45.0,82,63,37,30.10,30.01,12,7,12,0.00
2013-9-20,79.1,71.0,65.0,66.0,58.8,52.0,86,67,40,30.01,29.80,14,7,14,0.00
2013-9-21,67.6,63.6,57.6,64.0,56.5,39.0,96,79,38,29.83,29.68,12,4,12,0.00
2013-9-22,58.2,55.2,52.9,50.0,35.4,32.0,73,45,27,30.04,29.83,12,5,12,0.00
2013-9-23,57.6,53.0,46.7,39.0,33.9,32.0,58,44,28,30.16,30.04,7,2,7,0.00
2013-9-24,64.9,52.0,40.6,41.0,32.4,32.0,65,43,24,30.13,29.98,8,2,8,0.00
2013-9-25,69.0,55.9,43.5,48.0,33.6,32.0,67,43,23,30.01,29.92,7,2,7,0.00
2013-9-26,72.0,57.1,45.3,46.0,34.4,32.0,65,43,22,30.13,29.98,8,2,8,0.00
2013-9-27,69.4,57.9,46.9,48.0,33.7,32.0,65,41,23,30.22,30.10,9,3,9,0.00
2013-9-28,74.1,61.5,51.0,50.0,37.3,32.0,69,44,22,30.22,30.10,11,3,11,0.00
2013-9-29,71.4,62.6,55.6,50.0,39.4,36.0,62,43,30,30.10,29.98,12,4,12,0.00
2013-9-30,64.0,61.9,56.7,57.0,51.8,46.0,82,69,58,30.04,29.98,10,5,10,0.00
2013-10-1,75.4,63.5,54.7,61.0,45.0,34.0,87,55,22,30.07,29.98,13,4,13,0.00
2013-10-2,77.5,67.0,61.5,59.0,47.8,42.0,75,51,29,30.10,30.01,11,5,11,0.00
2013-10-3,76.8,66.1,60.4,66.0,56.5,46.0,89,72,41,30.10,30.01,11,3,11,0.00
2013-10-4,74.5,68.2,64.6,68.0,61.1,48.0,96,80,42,30.07,30.04,12,4,12,0.00
2013-10-5,72.3,68.0,63.9,68.0,63.2,55.0,93,85,57,30.07,29.95,9,3,9,0.00
2013-10-6,76.8,69.6,56.7,69.0,57.7,42.0,94,70,32,29.98,29.71,26,8,26,0.00
2013-10-7,57.6,52.8,47.3,52.0,38.0,32.0,92,57,27,30.13,29.74,18,10,18,0.00
2013-10-8,64.2,53.4,43.7,45.0,32.9,32.0,68,43,23,30.27,30.13,7,2,7,0.00
2013-10-9,66.0,53.4,42.8,37.0,32.4,32.0,62,41,23,30.30,30.22,8,3,8,0.00
2013-10-10,65.1,51.4,42.4,39.0,32.5,32.0,61,45,23,30.22,30.10,7,1,7,0.00
2013-10-11,70.3,55.5,43.3,45.0,33.6,32.0,69,44,23,30.13,30.04,7,1,7,0.00
2013-10-12,70.3,60.3,49.5,54.0,41.8,36.0,67,51,35,30.13,30.07,6,2,6,0.00
2013-10-13,67.1,62.6,58.8,55.0,48.3,43.0,71,59,45,30.27,30.13,10,3,10,0.00
2013-10-14,65.5,56.4,48.0,45.0,35.8,32.0,66,44,24,30.33,30.22,10,2,10,0.00
2013-10-15,63.0,54.8,43.4,55.0,43.5,32.0,75,62,44,30.24,29.95,7,2,7,0.00
2013-10-16,66.2,60.2,50.7,63.0,55.9,45.0,95,85,69,29.95,29.80,16,7,16,0.00
2013-10-17,55.8,49.1,43.5,46.0,41.3,32.0,85,75,40,29.92,29.77,15,5,15,0.00
2013-10-18,60.1,51.4,43.0,43.0,34.9,32.0,82,51,25,29.98,29.89,17,9,17,0.00
2013-10-19,51.3,46.4,41.0,36.0,32.2,32.0,69,53,38,29.92,29.74,20,7,20,0.00
2013-10-20,57.8,47.4,38.3,32.0,32.0,32.0,63,42,25,29.98,29.92,19,9,19,0.00
2013-10-21,62.6,53.3,46.4,36.0,32.2,32.0,58,33,24,29.98,29.83,18,10,18,0.00
2013-10-22,50.1,43.0,35.6,37.0,32.4,32.0,64,39,27,29.95,29.86,16,8,16,0.00
2013-10-23,44.6,39.0,35.6,32.0,32.0,32.0,62,43,29,29.92,29.77,19,6,19,0.00
2013-10-24,43.3,36.8,32.2,32.0,32.0,32.0,53,42,30,30.13,29.92,17,8,17,0.00
2013-10-25,48.7,39.4,33.6,32.0,32.0,32.0,62,43,27,30.30,30.13,16,10,16,0.00
2013-10-26,45.0,40.0,35.4,32.0,32.0,32.0,50,32,28,30.19,29.86,21,12,21,0.00
2013-10-27,49.2,40.6,34.7,32.0,32.0,32.0,60,43,27,30.07,29.98,13,5,13,0.00
2013-10-28,56.7,42.1,30.7,32.0,32.0,32.0,54,41,25,30.30,30.07,9,2,9,0.00
2013-10-29,56.1,42.9,31.6,32.0,32.0,32.0,56,41,26,30.36,30.24,8,1,8,0.00
2013-10-30,64.5,51.5,37.9,37.0,32.3,32.0,52,39,24,30.22,30.04,11,3,11,0.00
2013-10-31,64.6,60.1,57.2,57.0,50.0,37.0,92,71,43,30.04,29.36,20,11,20,0.00
2013-11-1,59.7,53.1,48.9,57.0,38.2,32.0,91,54,36,29.71,29.30,28,12,28,0.00
2013-11-2,49.1,46.1,41.4,36.0,32.2,32.0,63,54,41,30.01,29.68,17,8,17,0.00
2013-11-3,47.4,39.5,31.7,32.0,32.0,32.0,67,44,28,30.42,30.01,10,4,10,0.00
2013-11-4,45.0,36.8,29.5,32.0,32.0,32.0,41,33,28,30.48,30.36,12,6,12,0.00
2013-11-5,59.7,49.6,40.8,32.0,32.0,32.0,30,28,25,30.39,30.27,12,4,12,0.00
2013-11-6,64.9,54.9,44.6,54.0,36.9,32.0,86,40,24,30.27,29.89,23,10,23,0.00
2013-11-7,54.4,41.8,38.8,51.0,35.2,32.0,85,58,29,30.10,29.92,21,10,21,0.00
2013-11-8,40.5,36.0,28.9,32.0,32.0,32.0,50,39,29,30.24,30.07,17,7,17,0.00
2013-11-9,56.7,44.8,28.9,32.0,32.0,32.0,47,33,25,30.22,29.89,22,11,22,0.00
2013-11-10,51.3,43.4,35.3,32.0,32.0,32.0,37,30,28,30.24,29.95,22,13,22,0.00
2013-11-11,46.4,38.6,31.3,32.0,32.0,32.0,58,39,28,30.24,30.01,18,9,18,0.00
2013-11-12,33.1,30.1,28.0,32.0,32.0,32.0,59,49,34,30.45,30.16,16,8,16,0.00
2013-11-13,36.6,30.9,25.5,32.0,32.0,32.0,44,36,30,30.48,30.27,16,10,16,0.00
2013-11-14,47.3,37.9,28.6,32.0,32.0,32.0,34,30,27,30.27,30.10,18,12,18,0.00
2013-11-15,51.9,44.5,37.6,32.0,32.0,32.0,29,28,26,30.13,30.07,15,9,15,0.00
2013-11-16,59.5,49.5,34.9,36.0,32.5,32.0,47,38,28,30.19,29.95,15,6,15,0.00
2013-11-17,60.4,56.8,50.7,54.0,44.8,32.0,87,65,38,29.92,29.48,33,14,33,0.00
2013-11-18,50.7,43.2,35.3,32.0,32.0,32.0,42,34,28,30.10,29.59,30,18,30,0.00
2013-11-19,39.7,34.4,26.1,32.0,32.0,32.0,41,32,29,30.36,30.10,14,6,14,0.00
2013-11-20,45.9,34.4,22.1,32.0,32.0,32.0,51,35,27,30.39,30.27,15,5,15,0.00
2013-11-21,43.4,40.2,37.8,32.0,32.0,32.0,54,40,29,30.33,30.16,11,4,11,0.00
2013-11-22,49.3,43.5,34.9,45.0,36.6,32.0,87,70,49,30.27,30.10,20,7,20,0.00
2013-11-23,34.9,28.3,19.0,32.0,32.0,32.0,51,42,32,30.36,30.19,20,10,20,0.00
2013-11-24,23.8,19.8,18.0,32.0,32.0,32.0,37,34,33,30.48,30.36,23,12,23,0.00
2013-11-25,32.7,25.3,17.2,32.0,32.0,32.0,40,34,30,30.42,30.13,18,10,18,0.00
2013-11-26,33.6,31.6,30.4,32.0,32.0,32.0,58,50,36,30.16,29.83,15,4,15,0.00
2013-11-27,31.6,26.9,22.8,32.0,32.0,32.0,62,47,33,30.10,29.77,20,10,20,0.00
2013-11-28,28.8,23.9,17.6,32.0,32.0,32.0,40,37,32,30.36,30.10,12,7,12,0.00
2013-11-29,34.1,25.4,15.7,32.0,32.0,32.0,46,38,31,30.57,30.36,7,2,7,0.00
2013-11-30,39.2,30.8,25.0,32.0,32.0,32.0,41,34,29,30.54,30.16,12,6,12,0.00
2013-12-1,39.4,34.5,29.1,32.0,32.0,32.0,45,38,31,30.16,29.95,12,5,12,0.00
2013-12-2,38.5,34.6,31.3,32.0,32.0,32.0,55,48,40,29.95,29.86,8,2,8,0.00
2013-12-3,49.2,39.5,30.9,32.0,32.0,32.0,56,47,37,29.89,29.83,10,4,10,0.00
2013-12-4,57.0,48.9,37.9,34.0,32.0,32.0,58,44,36,29.95,29.77,13,4,13,0.00
2013-12-5,59.7,51.3,33.6,43.0,35.3,32.0,53,42,30,30.10,29.77,21,10,21,0.00
2013-12-6,33.8,30.9,27.3,32.0,32.0,32.0,56,51,41,30.27,30.07,11,4,11,0.00
2013-12-7,27.4,23.4,19.4,32.0,32.0,32.0,54,40,33,30.54,30.27,14,7,14,0.00
2013-12-8,27.9,23.4,18.1,32.0,32.0,32.0,51,39,32,30.54,30.01,13,6,13,0.00
2013-12-9,33.3,30.3,24.4,32.0,32.0,32.0,67,49,36,30.13,29.92,24,12,24,0.00
2013-12-10,26.5,22.8,19.8,32.0,32.0,32.0,37,34,32,30.22,29.98,24,13,24,0.00
2013-12-11,24.4,20.3,16.9,32.0,32.0,32.0,49,40,34,30.33,30.19,17,11,17,0.00
2013-12-12,18.5,14.2,8.1,32.0,32.0,32.0,45,39,33,30.39,30.19,20,11,20,0.00
2013-12-13,31.0,23.5,15.9,32.0,32.0,32.0,35,33,31,30.22,30.16,17,7,17,0.00
2013-12-14,33.1,28.3,23.7,32.0,32.0,32.0,68,56,34,30.19,29.65,10,5,10,0.00
2013-12-15,32.4,22.7,13.5,32.0,32.0,32.0,72,56,40,30.01,29.65,24,14,24,0.00
2013-12-16,24.8,17.8,11.4,32.0,32.0,32.0,46,39,33,30.13,29.98,12,6,12,0.00
2013-12-17,27.3,24.7,21.5,32.0,32.0,32.0,59,48,42,30.01,29.89,15,9,15,0.00
2013-12-18,28.6,25.2,23.5,32.0,32.0,32.0,50,42,34,30.13,29.98,17,11,17,0.00
2013-12-19,43.0,36.8,27.2,32.0,32.0,32.0,39,32,29,30.01,29.95,17,9,17,0.00
2013-12-20,53.4,45.4,40.4,52.0,35.8,32.0,93,54,29,29.95,29.80,16,10,16,0.00
2013-12-21,58.0,49.1,39.9,58.0,47.9,37.0,97,96,93,29.80,29.51,18,8,18,0.00
2013-12-22,61.4,52.6,42.3,61.0,42.7,32.0,97,67,28,29.95,29.45,28,14,28,0.00
2013-12-23,42.3,33.4,27.3,32.0,32.0,32.0,57,42,32,30.27,29.98,16,9,16,0.00
2013-12-24,27.2,19.2,16.2,32.0,32.0,32.0,46,38,34,30.48,30.22,16,9,16,0.00
2013-12-25,27.3,20.6,13.3,32.0,32.0,32.0,43,36,32,30.45,30.13,12,3,12,0.00
2013-12-26,30.7,27.6,21.4,32.0,32.0,32.0,50,38,32,30.30,30.07,21,8,21,0.00
2013-12-27,41.4,34.2,25.5,32.0,32.0,32.0,37,34,30,30.30,30.16,14,6,14,0.00
2013-12-28,51.4,42.1,35.4,32.0,32.0,32.0,36,30,26,30.16,29.98,18,10,18,0.00
2013-12-29,42.1,38.9,28.9,32.0,32.0,32.0,60,40,29,29.98,29.71,19,4,19,0.00
2013-12-30,28.8,22.3,18.9,32.0,32.0,32.0,57,45,33,30.22,29.92,15,4,15,0.00
2013-12-31,22.3,19.1,16.5,32.0,32.0,32.0,47,39,35,30.27,30.04,23,8,23,0.00
2014-1-1,24.3,20.8,18.7,32.0,32.0,32.0,49,45,40,30.27,30.07,7,2,7,0.00
2014-1-2,20.9,17.3,11.1,32.0,32.0,32.0,50,47,43,30.07,29.80,17,6,17,0.00